Time;durP1;ratioP1;P1;durP2;ratioP2;P2;SDS_P1;SDS_P2;PMS_P1;PMS_P2;Temp;Humidity;BMP_temperature;BMP_pressure;BME280_temperature;BME280_humidity;BME280_pressure;Samples;Min_cycle;Max_cycle;Signal;HPM_P1;HPM_P2
2024/03/18 00:00:57;;;;;;;9.23;4.28;;;;;;;;;;5015403;28;20228;-89
2024/03/18 00:04:02;;;;;;;9.20;4.40;;;;;;;;;;5016319;28;20188;-88
2024/03/18 00:07:10;;;;;;;9.57;4.40;;;;;;;;;;5015356;28;20204;-89
2024/03/18 00:10:15;;;;;;;10.67;4.90;;;;;;;;;;5012749;28;20285;-88
2024/03/18 00:13:20;;;;;;;12.32;4.60;;;;;;;;;;5016522;28;20192;-90
2024/03/18 00:16:26;;;;;;;10.93;4.70;;;;;;;;;;5026852;28;20196;-87
2024/03/18 00:19:31;;;;;;;10.48;4.57;;;;;;;;;;5009606;28;20213;-86
2024/03/18 00:22:37;;;;;;;9.25;4.68;;;;;;;;;;4993361;28;20225;-87
2024/03/18 00:25:42;;;;;;;13.73;5.40;;;;;;;;;;4975105;28;20211;-87
2024/03/18 00:28:47;;;;;;;11.20;4.33;;;;;;;;;;4976602;28;20189;-89
2024/03/18 00:31:53;;;;;;;9.43;4.45;;;;;;;;;;4994840;28;20251;-89
2024/03/18 00:34:57;;;;;;;9.57;4.80;;;;;;;;;;4995317;28;20321;-89
2024/03/18 00:38:05;;;;;;;11.00;4.67;;;;;;;;;;5012855;28;20240;-88
2024/03/18 00:44:33;;;;;;;9.27;4.77;;;;;;;;;;5014427;28;20554;-89
2024/03/18 00:47:39;;;;;;;9.55;4.40;;;;;;;;;;5013875;28;20188;-89
2024/03/18 00:50:43;;;;;;;9.40;4.33;;;;;;;;;;5015859;28;20255;-90
2024/03/18 00:53:50;;;;;;;10.90;4.40;;;;;;;;;;5013864;28;20192;-87
2024/03/18 00:56:55;;;;;;;10.63;4.97;;;;;;;;;;5014878;28;20223;-88
2024/03/18 01:00:00;;;;;;;10.67;5.10;;;;;;;;;;5014090;28;20211;-89
2024/03/18 01:03:06;;;;;;;10.20;4.97;;;;;;;;;;5009590;28;20193;-91
2024/03/18 01:06:16;;;;;;;10.73;4.90;;;;;;;;;;4975893;28;20598;-88
2024/03/18 01:09:23;;;;;;;9.70;4.50;;;;;;;;;;4985663;28;20564;-89
2024/03/18 01:12:28;;;;;;;8.23;4.17;;;;;;;;;;4974141;28;20181;-89
2024/03/18 01:15:34;;;;;;;10.27;4.67;;;;;;;;;;4986871;28;20314;-90
2024/03/18 01:18:39;;;;;;;8.97;4.63;;;;;;;;;;4985805;28;20209;-88
2024/03/18 01:21:45;;;;;;;8.40;4.60;;;;;;;;;;4983589;28;20328;-89
2024/03/18 01:24:52;;;;;;;11.47;4.83;;;;;;;;;;4971743;28;20210;-89
2024/03/18 01:27:57;;;;;;;11.80;4.87;;;;;;;;;;4972910;28;20166;-88
2024/03/18 01:31:03;;;;;;;8.80;4.43;;;;;;;;;;4985156;28;20202;-89
2024/03/18 01:34:11;;;;;;;8.47;4.23;;;;;;;;;;4983708;28;20198;-89
2024/03/18 01:37:16;;;;;;;10.67;4.37;;;;;;;;;;4971855;28;20572;-89
2024/03/18 01:40:24;;;;;;;8.73;4.53;;;;;;;;;;4983366;28;20205;-88
2024/03/18 01:43:29;;;;;;;8.47;4.60;;;;;;;;;;4983897;28;20189;-89
2024/03/18 01:46:34;;;;;;;10.20;4.90;;;;;;;;;;4973830;28;20737;-87
2024/03/18 01:49:39;;;;;;;9.53;4.77;;;;;;;;;;4973539;28;20206;-90
2024/03/18 01:52:44;;;;;;;10.57;4.80;;;;;;;;;;4982946;28;20995;-89
2024/03/18 01:55:50;;;;;;;13.70;5.43;;;;;;;;;;4972379;28;20704;-88
2024/03/18 01:58:57;;;;;;;11.40;5.17;;;;;;;;;;4971185;28;20329;-90
2024/03/18 02:02:02;;;;;;;11.00;5.33;;;;;;;;;;4974168;28;20233;-88
2024/03/18 02:05:07;;;;;;;10.03;4.70;;;;;;;;;;4986029;28;20193;-89
2024/03/18 02:08:13;;;;;;;12.57;5.00;;;;;;;;;;4973581;28;20206;-89
2024/03/18 02:11:20;;;;;;;10.17;5.03;;;;;;;;;;4985175;28;20177;-89
2024/03/18 02:14:25;;;;;;;12.77;5.30;;;;;;;;;;4973025;28;20190;-88
2024/03/18 02:17:30;;;;;;;7.93;4.70;;;;;;;;;;5007279;28;20261;-89
2024/03/18 02:20:35;;;;;;;9.33;4.93;;;;;;;;;;5012335;28;20176;-89
2024/03/18 02:23:42;;;;;;;8.50;4.60;;;;;;;;;;5012185;28;20192;-89
2024/03/18 02:26:47;;;;;;;8.23;4.53;;;;;;;;;;5012468;28;20172;-89
2024/03/18 02:29:53;;;;;;;10.43;4.80;;;;;;;;;;5023430;28;20236;-88
2024/03/18 02:32:58;;;;;;;13.37;4.97;;;;;;;;;;5012401;28;20192;-90
2024/03/18 02:36:03;;;;;;;11.20;4.63;;;;;;;;;;5012808;28;20224;-89
2024/03/18 02:39:11;;;;;;;9.77;4.53;;;;;;;;;;5012315;28;20188;-88
2024/03/18 02:42:16;;;;;;;9.90;4.47;;;;;;;;;;5013699;28;20224;-89
2024/03/18 02:45:22;;;;;;;8.23;4.23;;;;;;;;;;5012443;28;20242;-90
2024/03/18 02:48:27;;;;;;;8.67;4.40;;;;;;;;;;5011662;28;20176;-89
2024/03/18 02:51:31;;;;;;;8.77;4.90;;;;;;;;;;5012115;28;20197;-89
2024/03/18 02:54:38;;;;;;;10.97;4.50;;;;;;;;;;5012698;28;20192;-89
2024/03/18 02:57:43;;;;;;;10.43;5.10;;;;;;;;;;5012962;28;20311;-87
2024/03/18 03:00:49;;;;;;;11.10;5.00;;;;;;;;;;5013501;28;20610;-89
2024/03/18 03:03:54;;;;;;;13.43;5.33;;;;;;;;;;5013342;28;20193;-88
2024/03/18 03:07:00;;;;;;;9.97;4.90;;;;;;;;;;5014058;28;20180;-89
2024/03/18 03:10:07;;;;;;;8.30;4.77;;;;;;;;;;5014498;28;20173;-89
2024/03/18 03:13:12;;;;;;;8.10;4.57;;;;;;;;;;5017005;28;20662;-90
2024/03/18 03:16:17;;;;;;;8.87;4.43;;;;;;;;;;5018144;28;20196;-89
2024/03/18 03:19:22;;;;;;;7.37;4.27;;;;;;;;;;5017685;28;20200;-88
2024/03/18 03:22:28;;;;;;;9.50;4.67;;;;;;;;;;5017079;28;20213;-89
2024/03/18 03:25:38;;;;;;;7.80;4.50;;;;;;;;;;5017501;28;20240;-90
2024/03/18 03:28:44;;;;;;;9.57;4.60;;;;;;;;;;5015672;28;20188;-89
2024/03/18 03:31:49;;;;;;;10.60;4.40;;;;;;;;;;5016710;28;20212;-87
2024/03/18 03:34:54;;;;;;;9.77;4.97;;;;;;;;;;5015422;28;20251;-89
2024/03/18 03:37:59;;;;;;;9.63;4.73;;;;;;;;;;5009562;28;20680;-90
2024/03/18 03:41:06;;;;;;;12.73;4.27;;;;;;;;;;5012237;28;20280;-90
2024/03/18 03:44:11;;;;;;;9.97;4.30;;;;;;;;;;5014894;28;20640;-89
2024/03/18 03:47:17;;;;;;;9.63;4.37;;;;;;;;;;5016496;28;20220;-88
2024/03/18 03:50:22;;;;;;;8.23;4.40;;;;;;;;;;5015623;28;20255;-90
2024/03/18 03:53:27;;;;;;;12.80;4.30;;;;;;;;;;5014610;28;20200;-89
2024/03/18 03:56:34;;;;;;;7.37;4.57;;;;;;;;;;5014675;28;20216;-90
2024/03/18 03:59:39;;;;;;;10.13;4.10;;;;;;;;;;5008827;28;20201;-88
2024/03/18 04:02:44;;;;;;;10.17;4.07;;;;;;;;;;4993791;28;20216;-89
2024/03/18 04:05:51;;;;;;;8.77;4.40;;;;;;;;;;4974001;28;20230;-88
2024/03/18 04:08:56;;;;;;;12.63;4.33;;;;;;;;;;4976363;28;20181;-89
2024/03/18 04:12:03;;;;;;;10.03;4.50;;;;;;;;;;4976951;28;20217;-88
2024/03/18 04:15:11;;;;;;;8.20;4.10;;;;;;;;;;4977674;28;20244;-90
2024/03/18 04:18:17;;;;;;;6.87;4.10;;;;;;;;;;4977455;28;20284;-87
2024/03/18 04:21:22;;;;;;;9.23;4.20;;;;;;;;;;5010827;28;20201;-88
2024/03/18 04:24:27;;;;;;;7.27;4.17;;;;;;;;;;5009995;28;20253;-87
2024/03/18 04:27:33;;;;;;;9.83;4.27;;;;;;;;;;4995394;28;20189;-90
2024/03/18 04:30:38;;;;;;;7.30;4.27;;;;;;;;;;4995424;28;20185;-88
2024/03/18 04:33:44;;;;;;;8.87;4.60;;;;;;;;;;4995520;28;20559;-88
2024/03/18 04:36:49;;;;;;;12.27;4.63;;;;;;;;;;4995497;28;20300;-87
2024/03/18 04:39:54;;;;;;;15.53;8.87;;;;;;;;;;5003725;28;20200;-89
2024/03/18 04:43:00;;;;;;;10.83;4.73;;;;;;;;;;5014334;28;20219;-89
2024/03/18 04:46:05;;;;;;;12.47;4.17;;;;;;;;;;5010893;28;20204;-89
2024/03/18 04:49:10;;;;;;;9.20;4.50;;;;;;;;;;4995241;28;20662;-89
2024/03/18 04:52:16;;;;;;;9.03;4.20;;;;;;;;;;4995634;28;20189;-88
2024/03/18 04:55:22;;;;;;;12.80;4.27;;;;;;;;;;5007541;28;20200;-88
2024/03/18 04:58:29;;;;;;;9.50;4.50;;;;;;;;;;5012850;28;20168;-88
2024/03/18 05:01:34;;;;;;;16.10;4.90;;;;;;;;;;5012942;28;20192;-88
2024/03/18 05:04:39;;;;;;;16.40;5.03;;;;;;;;;;5012383;28;20200;-89
2024/03/18 05:07:45;;;;;;;11.63;4.43;;;;;;;;;;4995888;28;20172;-88
2024/03/18 05:10:50;;;;;;;11.20;4.83;;;;;;;;;;4994810;28;20613;-89
2024/03/18 05:13:56;;;;;;;8.33;4.43;;;;;;;;;;4994915;28;20192;-87
2024/03/18 05:17:02;;;;;;;15.37;4.00;;;;;;;;;;4999107;28;20262;-87
2024/03/18 05:20:11;;;;;;;14.13;4.40;;;;;;;;;;4995076;28;20197;-88
2024/03/18 05:23:16;;;;;;;10.60;4.40;;;;;;;;;;4995393;28;20208;-88
2024/03/18 05:26:24;;;;;;;12.30;4.60;;;;;;;;;;4994019;28;20193;-89
2024/03/18 05:29:31;;;;;;;12.23;4.33;;;;;;;;;;4995456;28;20273;-89
2024/03/18 05:32:36;;;;;;;10.63;4.23;;;;;;;;;;4982201;28;21110;-89
2024/03/18 05:35:41;;;;;;;10.90;4.00;;;;;;;;;;4987315;28;20221;-89
2024/03/18 05:38:46;;;;;;;8.47;3.90;;;;;;;;;;4997410;28;20204;-89
2024/03/18 05:41:52;;;;;;;16.10;4.57;;;;;;;;;;5015419;28;20238;-89
2024/03/18 05:44:59;;;;;;;12.17;4.40;;;;;;;;;;5004030;28;20209;-88
2024/03/18 05:48:04;;;;;;;9.27;4.63;;;;;;;;;;4988928;28;20277;-88
2024/03/18 05:51:10;;;;;;;9.77;4.00;;;;;;;;;;4983362;28;20208;-88
2024/03/18 05:54:15;;;;;;;9.43;3.90;;;;;;;;;;4974361;28;20233;-88
2024/03/18 05:57:21;;;;;;;8.47;4.37;;;;;;;;;;4986102;28;20209;-89
2024/03/18 06:00:27;;;;;;;9.03;3.63;;;;;;;;;;4983382;28;20857;-91
2024/03/18 06:03:32;;;;;;;8.13;4.17;;;;;;;;;;4994839;28;20213;-87
2024/03/18 06:06:38;;;;;;;15.47;4.10;;;;;;;;;;4993786;28;20193;-90
2024/03/18 06:09:45;;;;;;;7.30;3.73;;;;;;;;;;4994806;28;20177;-87
2024/03/18 06:12:50;;;;;;;8.27;4.00;;;;;;;;;;4996617;28;20272;-89
2024/03/18 06:15:56;;;;;;;11.53;4.30;;;;;;;;;;4993973;28;20189;-89
2024/03/18 06:19:04;;;;;;;9.30;4.30;;;;;;;;;;4995379;28;20193;-89
2024/03/18 06:22:20;;;;;;;8.30;4.10;;;;;;;;;;5004736;28;20213;-90
2024/03/18 06:28:48;;;;;;;8.57;3.70;;;;;;;;;;5004400;28;20254;-88
2024/03/18 06:31:55;;;;;;;10.60;3.80;;;;;;;;;;5005728;28;20181;-88
2024/03/18 06:35:04;;;;;;;10.80;3.73;;;;;;;;;;5008314;28;20192;-89
2024/03/18 06:38:09;;;;;;;6.90;3.75;;;;;;;;;;5005049;28;20209;-88
2024/03/18 06:41:15;;;;;;;7.80;3.87;;;;;;;;;;4975017;28;20205;-89
2024/03/18 06:44:20;;;;;;;10.45;5.25;;;;;;;;;;4973970;28;20268;-89
2024/03/18 06:47:27;;;;;;;8.13;4.10;;;;;;;;;;4977930;28;20190;-88
2024/03/18 06:50:32;;;;;;;10.60;4.20;;;;;;;;;;4978488;28;20194;-88
2024/03/18 06:53:37;;;;;;;8.07;4.30;;;;;;;;;;4978112;28;20209;-90
2024/03/18 06:56:42;;;;;;;8.43;4.00;;;;;;;;;;4981406;28;20166;-88
2024/03/18 06:59:48;;;;;;;11.23;4.55;;;;;;;;;;4979787;28;20181;-90
2024/03/18 07:02:55;;;;;;;7.20;3.63;;;;;;;;;;4977756;28;20304;-89
2024/03/18 07:06:02;;;;;;;14.93;4.05;;;;;;;;;;4977086;28;20233;-89
2024/03/18 07:09:08;;;;;;;8.40;3.67;;;;;;;;;;4978936;28;20194;-89
2024/03/18 07:12:13;;;;;;;7.93;4.10;;;;;;;;;;4986805;28;20205;-87
2024/03/18 07:15:18;;;;;;;14.48;4.38;;;;;;;;;;5019608;28;20547;-89
2024/03/18 07:18:25;;;;;;;8.40;4.28;;;;;;;;;;5014315;28;20192;-88
2024/03/18 07:21:30;;;;;;;7.35;4.05;;;;;;;;;;5014696;28;20899;-88
2024/03/18 07:24:35;;;;;;;8.82;4.05;;;;;;;;;;5015150;28;20208;-87
2024/03/18 07:27:41;;;;;;;9.75;4.60;;;;;;;;;;5013592;28;20188;-87
2024/03/18 07:30:49;;;;;;;10.35;4.10;;;;;;;;;;5013873;28;20192;-88
2024/03/18 07:33:55;;;;;;;9.50;4.20;;;;;;;;;;5014151;28;20232;-87
2024/03/18 07:37:01;;;;;;;5.85;3.65;;;;;;;;;;5014429;28;20263;-88
2024/03/18 07:40:08;;;;;;;8.57;4.15;;;;;;;;;;5013513;28;20343;-88
2024/03/18 07:43:14;;;;;;;8.02;4.38;;;;;;;;;;5016867;28;20216;-88
2024/03/18 07:46:20;;;;;;;12.20;4.20;;;;;;;;;;4976280;28;20198;-90
2024/03/18 07:49:26;;;;;;;9.43;4.15;;;;;;;;;;4997581;28;20321;-88
2024/03/18 07:52:31;;;;;;;10.07;3.75;;;;;;;;;;4997385;28;20182;-89
2024/03/18 07:55:36;;;;;;;5.50;3.42;;;;;;;;;;4996001;28;20373;-87
2024/03/18 07:58:42;;;;;;;9.07;3.90;;;;;;;;;;4997111;28;20202;-89
2024/03/18 08:01:47;;;;;;;8.02;4.00;;;;;;;;;;4997860;28;20182;-90
2024/03/18 08:04:55;;;;;;;8.20;3.67;;;;;;;;;;5000571;28;20209;-90
2024/03/18 08:08:02;;;;;;;9.25;4.10;;;;;;;;;;5000272;28;20193;-90
2024/03/18 08:11:08;;;;;;;8.75;3.95;;;;;;;;;;5000015;28;20190;-90
2024/03/18 08:14:14;;;;;;;9.43;3.92;;;;;;;;;;5000187;28;20563;-89
2024/03/18 08:17:23;;;;;;;8.52;4.28;;;;;;;;;;5000243;28;20201;-87
2024/03/18 08:20:29;;;;;;;12.13;3.92;;;;;;;;;;5000206;28;20177;-89
2024/03/18 08:23:34;;;;;;;9.68;4.18;;;;;;;;;;4999005;28;20213;-89
2024/03/18 08:26:39;;;;;;;10.90;3.50;;;;;;;;;;4998313;28;20193;-88
2024/03/18 08:29:45;;;;;;;9.40;4.35;;;;;;;;;;4999662;28;20189;-90
2024/03/18 08:32:50;;;;;;;11.88;3.78;;;;;;;;;;5000581;28;20186;-88
2024/03/18 08:36:03;;;;;;;10.48;3.65;;;;;;;;;;4999743;28;20217;-90
2024/03/18 08:39:09;;;;;;;12.30;3.83;;;;;;;;;;5000444;28;20182;-87
2024/03/18 08:42:15;;;;;;;7.68;3.67;;;;;;;;;;4999272;28;20241;-90
2024/03/18 08:45:20;;;;;;;5.60;3.30;;;;;;;;;;4997834;28;20198;-87
2024/03/18 08:48:26;;;;;;;8.07;3.17;;;;;;;;;;4978535;28;20225;-89
2024/03/18 08:51:34;;;;;;;9.82;4.15;;;;;;;;;;4999187;28;20217;-88
2024/03/18 08:54:39;;;;;;;6.93;3.30;;;;;;;;;;5001043;28;20233;-88
2024/03/18 08:57:44;;;;;;;5.68;3.15;;;;;;;;;;5001432;28;20205;-89
2024/03/18 09:00:50;;;;;;;8.20;3.22;;;;;;;;;;5001525;28;20197;-88
2024/03/18 09:03:55;;;;;;;10.30;3.33;;;;;;;;;;5002188;28;20224;-89
2024/03/18 09:07:02;;;;;;;8.63;2.80;;;;;;;;;;4996749;28;20214;-89
2024/03/18 09:10:12;;;;;;;7.90;2.90;;;;;;;;;;4973982;28;20189;-88
2024/03/18 09:13:18;;;;;;;7.70;2.55;;;;;;;;;;4996936;28;20194;-89
2024/03/18 09:16:23;;;;;;;10.63;2.95;;;;;;;;;;4998474;28;20194;-89
2024/03/18 09:19:28;;;;;;;6.55;2.67;;;;;;;;;;4997454;28;20212;-90
2024/03/18 09:22:34;;;;;;;11.57;2.90;;;;;;;;;;4997072;28;20789;-89
2024/03/18 09:25:41;;;;;;;9.95;3.22;;;;;;;;;;4996629;28;20658;-90
2024/03/18 09:28:46;;;;;;;7.88;2.80;;;;;;;;;;4997052;28;20263;-91
2024/03/18 09:31:54;;;;;;;5.70;3.05;;;;;;;;;;4997546;28;20190;-89
2024/03/18 09:35:07;;;;;;;6.82;3.08;;;;;;;;;;4996874;28;20321;-91
2024/03/18 09:38:15;;;;;;;7.40;3.10;;;;;;;;;;4999548;28;20205;-91
2024/03/18 09:41:20;;;;;;;7.50;2.92;;;;;;;;;;4995160;28;20933;-90
2024/03/18 09:44:28;;;;;;;9.48;3.30;;;;;;;;;;4994320;28;20229;-91
2024/03/18 09:47:34;;;;;;;8.93;2.95;;;;;;;;;;4996401;28;20201;-90
2024/03/18 09:50:39;;;;;;;8.57;2.70;;;;;;;;;;4996792;28;20226;-93
2024/03/18 09:53:46;;;;;;;7.60;2.60;;;;;;;;;;4995876;28;20190;-91
2024/03/18 09:56:55;;;;;;;6.35;2.35;;;;;;;;;;4995058;28;20698;-91
2024/03/18 10:00:00;;;;;;;4.80;2.70;;;;;;;;;;4997948;28;20229;-91
2024/03/18 10:03:06;;;;;;;4.53;2.50;;;;;;;;;;4996403;28;20303;-91
2024/03/18 10:06:14;;;;;;;8.48;2.70;;;;;;;;;;5000067;28;20173;-91
2024/03/18 10:09:28;;;;;;;8.30;2.92;;;;;;;;;;4999417;28;20277;-88
2024/03/18 10:12:34;;;;;;;7.03;2.42;;;;;;;;;;4995942;28;20194;-90
2024/03/18 10:15:39;;;;;;;8.98;2.97;;;;;;;;;;4996269;28;20269;-89
2024/03/18 10:18:47;;;;;;;7.25;3.03;;;;;;;;;;4994819;28;20202;-88
2024/03/18 10:21:52;;;;;;;9.88;2.65;;;;;;;;;;4997243;28;20337;-90
2024/03/18 10:24:59;;;;;;;9.15;2.90;;;;;;;;;;4996069;28;20240;-90
2024/03/18 10:28:06;;;;;;;10.00;2.97;;;;;;;;;;4972695;28;20631;-90
2024/03/18 10:31:15;;;;;;;6.53;2.50;;;;;;;;;;4995957;28;20269;-90
2024/03/18 10:34:22;;;;;;;8.57;3.28;;;;;;;;;;4996071;28;20254;-91
2024/03/18 10:37:28;;;;;;;6.28;2.70;;;;;;;;;;4996135;28;20239;-90
2024/03/18 10:40:37;;;;;;;6.68;2.97;;;;;;;;;;4994127;28;20189;-90
2024/03/18 10:43:44;;;;;;;7.53;2.70;;;;;;;;;;4996392;28;20707;-91
2024/03/18 10:46:50;;;;;;;6.68;2.72;;;;;;;;;;4997112;28;20259;-90
2024/03/18 10:49:59;;;;;;;8.90;2.70;;;;;;;;;;4994226;28;20202;-91
2024/03/18 10:53:05;;;;;;;6.13;2.85;;;;;;;;;;4994016;28;20322;-90
2024/03/18 10:56:11;;;;;;;8.48;2.90;;;;;;;;;;4993668;28;20605;-91
2024/03/18 10:59:17;;;;;;;11.27;3.63;;;;;;;;;;4995026;28;20194;-89
2024/03/18 11:02:30;;;;;;;10.95;3.97;;;;;;;;;;4995241;28;20177;-91
2024/03/18 11:05:35;;;;;;;12.98;4.10;;;;;;;;;;4995321;28;20812;-90
2024/03/18 11:08:42;;;;;;;6.53;3.30;;;;;;;;;;4996753;28;20202;-91
2024/03/18 11:11:49;;;;;;;12.65;4.00;;;;;;;;;;4996140;28;20656;-89
2024/03/18 11:15:04;;;;;;;7.88;3.50;;;;;;;;;;4974974;28;20182;-89
2024/03/18 11:18:11;;;;;;;9.18;3.40;;;;;;;;;;4995941;28;20199;-91
2024/03/18 11:21:19;;;;;;;9.50;3.67;;;;;;;;;;4996034;28;20197;-89
2024/03/18 11:24:24;;;;;;;9.20;4.20;;;;;;;;;;4995587;28;20340;-89
2024/03/18 11:27:33;;;;;;;10.40;3.83;;;;;;;;;;4994320;28;20670;-89
2024/03/18 11:30:45;;;;;;;9.40;3.88;;;;;;;;;;4995190;28;20213;-90
2024/03/18 11:33:50;;;;;;;11.05;4.28;;;;;;;;;;4999832;28;20202;-91
2024/03/18 11:36:55;;;;;;;8.68;4.00;;;;;;;;;;5000819;28;20218;-89
2024/03/18 11:40:04;;;;;;;7.88;3.70;;;;;;;;;;5000144;28;20730;-89
2024/03/18 11:43:12;;;;;;;11.57;3.78;;;;;;;;;;4977151;28;20249;-89
2024/03/18 11:46:17;;;;;;;9.98;3.50;;;;;;;;;;5001797;28;20206;-90
2024/03/18 11:49:24;;;;;;;9.73;3.97;;;;;;;;;;5001350;28;20712;-90
2024/03/18 11:52:29;;;;;;;7.32;4.10;;;;;;;;;;4978987;28;20201;-90
2024/03/18 11:55:36;;;;;;;7.72;3.65;;;;;;;;;;4997485;28;20213;-89
2024/03/18 11:58:42;;;;;;;9.18;4.35;;;;;;;;;;4997772;28;20714;-91
2024/03/18 12:01:47;;;;;;;9.55;4.15;;;;;;;;;;4998437;28;20669;-90
2024/03/18 12:04:52;;;;;;;11.63;4.40;;;;;;;;;;4999741;28;20586;-91
2024/03/18 12:07:58;;;;;;;10.48;4.30;;;;;;;;;;4999945;28;20190;-91
2024/03/18 12:11:03;;;;;;;11.65;4.13;;;;;;;;;;4999890;28;20186;-92
2024/03/18 12:14:11;;;;;;;9.38;4.43;;;;;;;;;;4998694;28;20186;-90
2024/03/18 12:17:16;;;;;;;15.35;4.68;;;;;;;;;;4977136;28;20294;-91
2024/03/18 12:20:25;;;;;;;12.02;4.50;;;;;;;;;;5000483;28;20280;-90
2024/03/18 12:30:21;;;;;;;10.88;4.97;;;;;;;;;;4976909;28;20242;-90
2024/03/18 12:33:29;;;;;;;10.60;4.18;;;;;;;;;;5000620;28;20209;-91
2024/03/18 12:36:35;;;;;;;7.63;3.90;;;;;;;;;;5000451;28;20262;-88
2024/03/18 12:39:40;;;;;;;7.75;4.07;;;;;;;;;;4999536;28;20190;-90
2024/03/18 12:42:47;;;;;;;10.88;4.68;;;;;;;;;;4999658;28;20189;-91
2024/03/18 12:45:55;;;;;;;10.57;4.80;;;;;;;;;;4999031;28;20305;-88
2024/03/18 12:49:03;;;;;;;7.15;4.00;;;;;;;;;;4998209;28;20198;-91
2024/03/18 12:52:12;;;;;;;10.07;4.60;;;;;;;;;;5000096;28;20197;-91
2024/03/18 12:55:18;;;;;;;10.68;5.00;;;;;;;;;;5000846;28;20677;-91
2024/03/18 12:58:24;;;;;;;13.50;4.53;;;;;;;;;;4999824;28;20190;-89
2024/03/18 13:01:31;;;;;;;10.52;3.95;;;;;;;;;;4998092;28;20273;-89
2024/03/18 13:04:36;;;;;;;9.70;4.80;;;;;;;;;;4999955;28;20221;-90
2024/03/18 13:07:47;;;;;;;9.20;4.78;;;;;;;;;;4999997;28;20209;-89
2024/03/18 13:10:52;;;;;;;11.57;5.10;;;;;;;;;;4997275;28;20199;-91
2024/03/18 13:13:57;;;;;;;22.13;6.03;;;;;;;;;;4997476;28;20190;-91
2024/03/18 13:17:04;;;;;;;8.70;4.75;;;;;;;;;;4996956;28;20190;-90
2024/03/18 13:20:15;;;;;;;10.45;4.82;;;;;;;;;;4998078;28;20174;-90
2024/03/18 13:23:21;;;;;;;11.23;4.18;;;;;;;;;;4998637;28;20186;-90
2024/03/18 13:26:26;;;;;;;10.63;4.60;;;;;;;;;;4997472;28;20193;-91
2024/03/18 13:29:31;;;;;;;11.45;5.05;;;;;;;;;;4997069;28;20198;-91
2024/03/18 13:32:41;;;;;;;14.25;6.63;;;;;;;;;;4998505;28;20198;-91
2024/03/18 13:35:47;;;;;;;16.80;7.15;;;;;;;;;;4997853;28;20223;-90
2024/03/18 13:38:52;;;;;;;12.07;4.85;;;;;;;;;;4964558;28;20237;-91
2024/03/18 13:42:00;;;;;;;14.00;4.68;;;;;;;;;;4997482;28;20244;-90
2024/03/18 13:45:08;;;;;;;15.02;6.15;;;;;;;;;;4996037;28;20245;-91
2024/03/18 13:48:15;;;;;;;12.73;5.28;;;;;;;;;;4997628;28;20185;-89
2024/03/18 13:51:20;;;;;;;9.85;5.28;;;;;;;;;;4998035;28;20197;-90
2024/03/18 13:54:27;;;;;;;10.68;4.93;;;;;;;;;;4997415;28;20190;-90
2024/03/18 13:57:32;;;;;;;9.07;4.93;;;;;;;;;;4998478;28;20693;-90
2024/03/18 14:00:39;;;;;;;11.52;5.45;;;;;;;;;;4996885;28;20181;-89
2024/03/18 14:03:46;;;;;;;11.80;5.43;;;;;;;;;;4997889;28;20200;-90
2024/03/18 14:06:53;;;;;;;13.30;6.05;;;;;;;;;;4998209;28;20197;-89
2024/03/18 14:09:59;;;;;;;9.10;4.78;;;;;;;;;;4997272;28;20550;-91
2024/03/18 14:13:06;;;;;;;11.32;5.35;;;;;;;;;;4998133;28;20265;-89
2024/03/18 14:16:12;;;;;;;11.70;4.45;;;;;;;;;;4996556;28;20296;-91
2024/03/18 14:19:19;;;;;;;10.45;4.35;;;;;;;;;;4995281;28;20213;-90
2024/03/18 14:22:24;;;;;;;9.50;4.55;;;;;;;;;;4998440;28;20314;-91
2024/03/18 14:25:31;;;;;;;8.82;4.60;;;;;;;;;;4997282;28;20213;-90
2024/03/18 14:28:37;;;;;;;10.25;4.63;;;;;;;;;;4997148;28;20191;-90
2024/03/18 14:31:42;;;;;;;12.07;5.10;;;;;;;;;;4998729;28;20189;-91
2024/03/18 14:34:49;;;;;;;9.85;5.40;;;;;;;;;;4997166;28;20189;-90
2024/03/18 14:37:54;;;;;;;14.82;5.45;;;;;;;;;;4975110;28;20205;-91
2024/03/18 14:41:00;;;;;;;12.90;6.10;;;;;;;;;;4998066;28;20194;-89
2024/03/18 14:44:06;;;;;;;14.55;5.55;;;;;;;;;;4997926;28;20214;-90
2024/03/18 14:47:12;;;;;;;10.93;5.95;;;;;;;;;;4975462;28;20255;-91
2024/03/18 14:50:20;;;;;;;13.93;5.65;;;;;;;;;;4998126;28;20206;-90
2024/03/18 14:53:26;;;;;;;10.25;5.55;;;;;;;;;;4997989;28;20198;-88
2024/03/18 14:56:31;;;;;;;21.38;6.60;;;;;;;;;;4996755;28;20178;-90
2024/03/18 14:59:36;;;;;;;13.82;6.72;;;;;;;;;;4998944;28;20174;-90
2024/03/18 15:02:54;;;;;;;14.40;6.15;;;;;;;;;;5001812;28;20333;-89
2024/03/18 15:06:03;;;;;;;13.05;6.63;;;;;;;;;;5000761;28;20260;-90
2024/03/18 15:09:09;;;;;;;15.70;6.63;;;;;;;;;;5001534;28;20186;-87
2024/03/18 15:12:14;;;;;;;16.48;6.18;;;;;;;;;;5003411;28;20173;-90
2024/03/18 15:15:20;;;;;;;14.40;6.32;;;;;;;;;;5003639;28;20198;-89
2024/03/18 15:18:25;;;;;;;13.93;5.65;;;;;;;;;;5002952;28;20186;-89
2024/03/18 15:21:32;;;;;;;14.35;5.85;;;;;;;;;;5000996;28;20284;-89
2024/03/18 15:24:50;;;;;;;13.98;6.38;;;;;;;;;;5003413;28;20195;-89
2024/03/18 15:27:54;;;;;;;16.08;5.70;;;;;;;;;;5004906;28;20202;-89
2024/03/18 15:30:59;;;;;;;15.73;6.03;;;;;;;;;;5002541;28;20240;-90
2024/03/18 15:34:06;;;;;;;15.07;5.78;;;;;;;;;;5002246;28;20190;-90
2024/03/18 15:37:13;;;;;;;15.43;5.95;;;;;;;;;;5000575;28;20221;-90
2024/03/18 15:40:19;;;;;;;11.40;6.13;;;;;;;;;;5002471;28;20277;-91
2024/03/18 15:43:28;;;;;;;13.52;5.90;;;;;;;;;;5001696;28;20252;-91
2024/03/18 15:46:34;;;;;;;13.82;5.50;;;;;;;;;;5000846;28;20217;-90
2024/03/18 15:49:40;;;;;;;12.77;5.75;;;;;;;;;;5001815;28;20193;-91
2024/03/18 15:52:50;;;;;;;12.50;5.55;;;;;;;;;;5002469;28;20186;-89
2024/03/18 15:55:58;;;;;;;15.02;5.60;;;;;;;;;;5001040;28;20230;-89
2024/03/18 15:59:04;;;;;;;12.38;4.90;;;;;;;;;;4991139;28;20653;-88
2024/03/18 16:02:09;;;;;;;11.13;5.13;;;;;;;;;;5008546;28;20579;-91
2024/03/18 16:05:14;;;;;;;12.60;5.88;;;;;;;;;;5000792;28;20229;-90
2024/03/18 16:08:21;;;;;;;15.38;6.00;;;;;;;;;;4996440;28;20200;-90
2024/03/18 16:11:26;;;;;;;16.70;6.68;;;;;;;;;;4996701;28;20217;-91
2024/03/18 16:14:31;;;;;;;14.27;5.88;;;;;;;;;;4997150;28;20265;-89
2024/03/18 16:17:37;;;;;;;16.95;7.03;;;;;;;;;;4996787;28;20196;-90
2024/03/18 16:20:43;;;;;;;17.25;5.75;;;;;;;;;;4995772;28;20546;-89
2024/03/18 16:23:52;;;;;;;14.50;5.72;;;;;;;;;;4996436;28;20196;-90
2024/03/18 16:26:58;;;;;;;13.90;5.75;;;;;;;;;;4995124;28;20232;-90
2024/03/18 16:30:06;;;;;;;11.02;4.50;;;;;;;;;;4997361;28;20181;-91
2024/03/18 16:33:10;;;;;;;14.32;5.25;;;;;;;;;;4996391;28;20205;-90
2024/03/18 16:36:20;;;;;;;9.60;4.53;;;;;;;;;;4996634;28;20244;-90
2024/03/18 16:39:27;;;;;;;9.45;5.38;;;;;;;;;;4997049;28;20189;-90
2024/03/18 16:42:32;;;;;;;14.68;6.00;;;;;;;;;;4996106;28;20201;-88
2024/03/18 16:45:38;;;;;;;14.23;6.30;;;;;;;;;;4996770;28;20297;-90
2024/03/18 16:48:44;;;;;;;17.38;8.30;;;;;;;;;;4995609;28;20197;-91
2024/03/18 16:51:49;;;;;;;12.82;5.55;;;;;;;;;;4996800;28;20175;-88
2024/03/18 16:54:56;;;;;;;11.95;5.53;;;;;;;;;;4995885;28;20181;-91
2024/03/18 16:58:03;;;;;;;14.48;6.07;;;;;;;;;;4995301;28;20270;-89
2024/03/18 17:01:13;;;;;;;15.40;6.20;;;;;;;;;;4994830;28;20722;-87
2024/03/18 17:04:19;;;;;;;17.02;6.60;;;;;;;;;;4996052;28;20296;-88
2024/03/18 17:07:24;;;;;;;16.58;6.20;;;;;;;;;;4994796;28;20200;-87
2024/03/18 17:10:31;;;;;;;16.23;6.25;;;;;;;;;;4994628;28;20189;-90
2024/03/18 17:13:36;;;;;;;16.48;5.70;;;;;;;;;;4995140;28;20193;-88
2024/03/18 17:16:42;;;;;;;19.27;7.10;;;;;;;;;;4995497;28;20687;-89
2024/03/18 17:19:47;;;;;;;16.25;6.47;;;;;;;;;;4994173;28;20309;-90
2024/03/18 17:22:52;;;;;;;15.57;6.45;;;;;;;;;;4993648;28;20193;-89
2024/03/18 17:25:59;;;;;;;13.68;5.93;;;;;;;;;;4995951;28;20220;-90
2024/03/18 17:29:05;;;;;;;15.30;5.47;;;;;;;;;;4993687;28;20324;-91
2024/03/18 17:32:12;;;;;;;10.40;5.22;;;;;;;;;;4994586;28;20193;-89
2024/03/18 17:35:18;;;;;;;9.60;5.05;;;;;;;;;;4993646;28;20262;-91
2024/03/18 17:38:23;;;;;;;8.98;4.50;;;;;;;;;;4994092;28;20189;-89
2024/03/18 17:41:30;;;;;;;11.50;4.28;;;;;;;;;;4993238;28;20573;-89
2024/03/18 17:44:37;;;;;;;9.55;4.30;;;;;;;;;;4993291;28;20266;-90
2024/03/18 17:47:42;;;;;;;8.32;3.88;;;;;;;;;;4994331;28;20192;-91
2024/03/18 17:50:54;;;;;;;9.40;4.38;;;;;;;;;;4995065;28;20193;-90
2024/03/18 17:53:59;;;;;;;14.02;4.80;;;;;;;;;;4995735;28;20200;-90
2024/03/18 17:57:07;;;;;;;11.07;4.63;;;;;;;;;;5013552;28;20188;-89
2024/03/18 18:00:13;;;;;;;11.15;4.35;;;;;;;;;;5008172;28;20197;-93
2024/03/18 18:03:21;;;;;;;9.57;4.57;;;;;;;;;;4973300;28;20306;-89
2024/03/18 18:06:28;;;;;;;10.38;4.35;;;;;;;;;;4993675;28;20750;-89
2024/03/18 18:09:34;;;;;;;16.27;7.72;;;;;;;;;;4993331;28;20196;-90
2024/03/18 18:12:41;;;;;;;11.23;5.60;;;;;;;;;;4993252;28;20217;-88
2024/03/18 18:15:47;;;;;;;10.00;4.53;;;;;;;;;;4993270;28;20192;-90
2024/03/18 18:18:52;;;;;;;14.18;5.18;;;;;;;;;;4994538;28;20189;-89
2024/03/18 18:21:57;;;;;;;10.48;4.40;;;;;;;;;;4995248;28;20316;-88
2024/03/18 18:25:02;;;;;;;9.43;4.07;;;;;;;;;;4996376;28;20185;-89
2024/03/18 18:28:11;;;;;;;9.43;4.40;;;;;;;;;;4993968;28;20200;-89
2024/03/18 18:31:17;;;;;;;11.52;4.80;;;;;;;;;;4993435;28;20169;-89
2024/03/18 18:34:23;;;;;;;8.60;4.40;;;;;;;;;;4996270;28;20192;-89
2024/03/18 18:37:32;;;;;;;12.95;5.10;;;;;;;;;;4982454;28;20213;-90
2024/03/18 18:40:37;;;;;;;11.95;5.18;;;;;;;;;;4993736;28;20185;-89